MPTO/PTY METAR and TAF weather

Enter ICAO airport designator
Station Type Date Time Source
MPTO METAR 2021/03/01 07:00 UTC NOAA

MPTO 010700Z 21003KT 9999 FEW020 23/21 Q1008 NOSIG


Station Type Date Time Source
MPTO Decoded METAR 2021/03/01 07:00 UTC NOAA

Tocumen, Panama (MPTO) 09-03N 079-22W
Mar 01, 2021 - 02:00 AM EST / 2021.03.01 0700 UTC
Wind: from the SSW (210 degrees) at 3 MPH (3 KT):0
Visibility: greater than 7 mile(s):0
Sky conditions: mostly clear
Temperature: 73 F (23 C)
Dew Point: 69 F (21 C)
Relative Humidity: 88%
Pressure (altimeter): 29.77 in. Hg (1008 hPa)
ob: MPTO 010700Z 21003KT 9999 FEW020 23/21 Q1008 NOSIG
cycle: 7

Station Type Date Time Source
MPTO TAF 2021/03/01 06:54 UTC NOAA

TAF TAF MPTO 010500Z 0106/0212 02008KT 9999 FEW018
TEMPO 0108/0110 VRB02KT
TEMPO 0116/0118 03016KT FEW018

Example: see airport list